createdAt,value
2022-08-23T00:00:16.141Z,7.63
2022-08-23T00:02:45.743Z,10.43
2022-08-23T00:05:15.252Z,10.60
2022-08-23T00:07:44.231Z,13.52
2022-08-23T00:10:14.872Z,3.67
2022-08-23T00:12:46.645Z,11.98
2022-08-23T00:15:17.368Z,9.77
2022-08-23T00:17:47.413Z,13.90
2022-08-23T00:20:18.424Z,10.15
2022-08-23T00:22:48.062Z,10.00
2022-08-23T00:25:18.700Z,11.05
2022-08-23T00:27:48.519Z,5.75
2022-08-23T00:30:19.397Z,8.13
2022-08-23T00:32:49.827Z,10.15
2022-08-23T00:35:26.872Z,12.57
2022-08-23T00:38:30.419Z,5.55
2022-08-23T00:40:45.543Z,13.80
2022-08-23T00:43:49.517Z,10.73
2022-08-23T00:46:49.940Z,12.75
2022-08-23T00:49:21.157Z,8.35
2022-08-23T00:52:08.839Z,8.90
2022-08-23T00:54:39.902Z,10.63
2022-08-23T00:57:12.103Z,5.90
2022-08-23T01:00:11.707Z,15.18
2022-08-23T01:02:40.631Z,6.97
2022-08-23T01:05:25.827Z,6.40
2022-08-23T01:08:02.529Z,7.50
2022-08-23T01:10:43.167Z,15.88
2022-08-23T01:13:23.397Z,11.57
2022-08-23T01:16:11.293Z,7.55
2022-08-23T01:18:43.374Z,12.10
2022-08-23T01:21:17.057Z,11.45
2022-08-23T01:25:22.765Z,11.00
2022-08-23T01:27:57.578Z,13.18
2022-08-23T01:30:28.517Z,12.65
2022-08-23T01:33:03.564Z,8.93
2022-08-23T01:35:42.337Z,15.07
2022-08-23T01:38:15.170Z,10.25
2022-08-23T01:43:14.095Z,8.60
2022-08-23T01:45:43.053Z,8.52
2022-08-23T01:48:20.637Z,7.28
2022-08-23T01:50:48.808Z,4.47
2022-08-23T01:53:16.942Z,9.40
2022-08-23T01:55:58.122Z,12.25
2022-08-23T01:58:40.720Z,9.48
2022-08-23T02:01:11.920Z,15.23
2022-08-23T02:03:39.766Z,12.50
2022-08-23T02:06:14.817Z,9.73
2022-08-23T02:09:03.988Z,9.63
2022-08-23T02:11:46.125Z,10.20
2022-08-23T02:14:21.189Z,9.45
2022-08-23T02:17:04.501Z,10.98
2022-08-23T02:19:37.330Z,14.02
2022-08-23T02:22:08.249Z,11.15
2022-08-23T02:24:54.057Z,9.80
2022-08-23T02:27:25.880Z,9.43
2022-08-23T02:30:02.041Z,8.85
2022-08-23T02:32:31.558Z,6.78
2022-08-23T02:35:05.117Z,11.80
2022-08-23T02:37:39.298Z,6.18
2022-08-23T02:40:08.554Z,6.33
2022-08-23T02:42:40.345Z,13.80
2022-08-23T02:45:13.592Z,5.50
2022-08-23T02:48:02.571Z,10.45
2022-08-23T02:50:45.139Z,7.57
2022-08-23T02:53:12.997Z,9.60
2022-08-23T02:55:45.823Z,11.10
2022-08-23T02:58:21.642Z,9.90
2022-08-23T03:00:53.245Z,14.57
2022-08-23T03:05:51.528Z,17.27
2022-08-23T03:08:23.219Z,9.15
2022-08-23T03:10:52.935Z,11.00
2022-08-23T03:13:21.516Z,8.95
2022-08-23T03:15:50.891Z,9.95
2022-08-23T03:18:18.559Z,10.25
2022-08-23T03:20:52.283Z,10.73
2022-08-23T03:23:19.746Z,14.45
2022-08-23T03:25:47.419Z,14.40
2022-08-23T03:28:22.480Z,6.90
2022-08-23T03:30:50.541Z,9.43
2022-08-23T03:33:18.529Z,12.52
2022-08-23T03:35:47.932Z,11.40
2022-08-23T03:38:16.495Z,16.38
2022-08-23T03:40:44.727Z,8.98
2022-08-23T03:43:17.941Z,9.30
2022-08-23T03:45:45.464Z,10.68
2022-08-23T03:48:15.561Z,14.15
2022-08-23T03:50:43.310Z,9.82
2022-08-23T03:53:12.248Z,12.85
2022-08-23T03:55:45.588Z,10.25
2022-08-23T03:58:18.309Z,6.78
2022-08-23T04:00:46.100Z,8.88
2022-08-23T04:03:16.741Z,9.23
2022-08-23T04:06:03.773Z,10.98
2022-08-23T04:08:34.791Z,9.15
2022-08-23T04:11:05.137Z,7.10
2022-08-23T04:13:36.836Z,15.05
2022-08-23T04:16:07.496Z,12.10
2022-08-23T04:18:35.250Z,9.38
2022-08-23T04:21:10.329Z,10.43
2022-08-23T04:23:42.639Z,12.02
2022-08-23T04:26:14.401Z,12.93
2022-08-23T04:28:43.117Z,10.85
2022-08-23T04:31:11.091Z,7.07
2022-08-23T04:33:44.250Z,9.85
2022-08-23T04:36:15.714Z,11.77
2022-08-23T04:38:43.617Z,12.05
2022-08-23T04:41:34.128Z,14.05
2022-08-23T04:44:01.856Z,8.38
2022-08-23T04:46:33.623Z,15.27
2022-08-23T04:49:02.281Z,9.65
2022-08-23T04:51:32.795Z,15.43
2022-08-23T04:54:00.084Z,12.30
2022-08-23T04:56:59.705Z,11.32
2022-08-23T04:59:27.198Z,9.63
2022-08-23T05:01:54.516Z,9.02
2022-08-23T05:04:26.554Z,10.93
2022-08-23T05:06:54.014Z,12.07
2022-08-23T05:09:22.036Z,11.32
2022-08-23T05:11:51.616Z,11.32
2022-08-23T05:14:19.727Z,9.60
2022-08-23T05:16:50.146Z,10.15
2022-08-23T05:19:19.447Z,11.15
2022-08-23T05:21:47.965Z,12.30
2022-08-23T05:24:16.461Z,11.95
2022-08-23T05:26:46.663Z,10.02
2022-08-23T05:29:14.074Z,13.45
2022-08-23T05:31:56.287Z,13.10
2022-08-23T05:34:26.037Z,12.93
2022-08-23T05:36:56.631Z,10.88
2022-08-23T05:39:36.487Z,10.68
2022-08-23T05:42:12.544Z,12.27
2022-08-23T05:44:40.038Z,11.48
2022-08-23T05:47:12.126Z,13.85
2022-08-23T05:49:56.504Z,11.52
2022-08-23T05:52:27.674Z,14.05
2022-08-23T05:54:56.116Z,9.38
2022-08-23T05:57:38.663Z,33.63
2022-08-23T06:00:16.106Z,17.35
2022-08-23T06:02:47.036Z,16.05
2022-08-23T06:05:16.647Z,11.10
2022-08-23T06:07:48.493Z,9.70
2022-08-23T06:10:24.522Z,13.65
2022-08-23T06:13:03.528Z,13.30
2022-08-23T06:15:32.437Z,24.35
2022-08-23T06:18:02.882Z,16.40
2022-08-23T06:20:34.396Z,19.13
2022-08-23T06:23:08.673Z,19.40
2022-08-23T06:25:42.677Z,12.43
2022-08-23T06:28:15.273Z,19.42
2022-08-23T06:30:43.857Z,15.35
2022-08-23T06:33:14.081Z,9.20
2022-08-23T06:35:41.897Z,13.57
2022-08-23T06:38:13.385Z,13.35
2022-08-23T06:40:54.306Z,22.60
2022-08-23T06:43:30.571Z,20.42
2022-08-23T06:46:23.766Z,23.40
2022-08-23T06:48:54.138Z,11.73
2022-08-23T06:51:36.492Z,23.23
2022-08-23T06:54:20.952Z,13.65
2022-08-23T06:56:52.519Z,14.73
2022-08-23T06:59:28.655Z,14.93
2022-08-23T07:02:28.123Z,17.13
2022-08-23T07:04:58.510Z,11.65
2022-08-23T07:07:44.798Z,12.98
2022-08-23T07:10:16.053Z,11.45
2022-08-23T07:12:44.511Z,10.73
2022-08-23T07:15:16.632Z,15.35
2022-08-23T07:17:45.481Z,10.60
2022-08-23T07:20:16.036Z,12.68
2022-08-23T07:22:45.709Z,13.60
2022-08-23T07:25:17.207Z,11.27
2022-08-23T07:30:24.906Z,8.93
2022-08-23T07:32:52.462Z,6.78
2022-08-23T07:35:22.591Z,11.27
2022-08-23T07:37:56.758Z,11.55
2022-08-23T07:40:30.532Z,12.10
2022-08-23T07:43:04.456Z,10.13
2022-08-23T07:45:39.201Z,10.87
2022-08-23T07:48:10.725Z,11.82
2022-08-23T07:51:07.467Z,9.80
2022-08-23T07:53:38.133Z,14.18
2022-08-23T07:56:10.208Z,6.70
2022-08-23T07:58:58.922Z,11.40
2022-08-23T08:01:56.713Z,15.57
2022-08-23T08:04:29.544Z,7.18
2022-08-23T08:07:18.349Z,6.07
2022-08-23T08:09:49.665Z,9.20
2022-08-23T08:12:17.933Z,7.13
2022-08-23T08:14:52.169Z,11.45
2022-08-23T08:17:29.348Z,7.80
2022-08-23T08:20:15.897Z,5.68
2022-08-23T08:22:59.188Z,8.38
2022-08-23T08:25:48.211Z,8.10
2022-08-23T08:28:18.798Z,3.72
2022-08-23T08:30:48.978Z,4.97
2022-08-23T08:33:16.802Z,11.52
2022-08-23T08:35:56.185Z,7.53
2022-08-23T08:38:38.736Z,12.10
2022-08-23T08:41:20.715Z,5.45
2022-08-23T08:43:56.510Z,9.02
2022-08-23T08:46:39.040Z,4.65
2022-08-23T08:49:14.324Z,3.88
2022-08-23T08:51:57.502Z,4.95
2022-08-23T08:57:02.397Z,7.15
2022-08-23T08:59:59.283Z,7.47
2022-08-23T09:02:36.390Z,8.77
2022-08-23T09:05:16.985Z,7.07
2022-08-23T09:08:04.268Z,10.10
2022-08-23T09:11:08.365Z,8.55
2022-08-23T09:13:56.237Z,7.80
2022-08-23T09:16:36.937Z,11.40
2022-08-23T09:19:05.032Z,12.20
2022-08-23T09:21:55.021Z,9.02
2022-08-23T09:24:23.275Z,9.68
2022-08-23T09:27:20.524Z,6.53
2022-08-23T09:29:58.741Z,10.00
2022-08-23T09:32:43.428Z,7.57
2022-08-23T09:35:25.179Z,13.50
2022-08-23T09:38:16.713Z,6.60
2022-08-23T09:40:51.483Z,5.95
2022-08-23T09:43:26.482Z,7.13
2022-08-23T09:46:02.136Z,7.65
2022-08-23T09:48:40.719Z,5.40
2022-08-23T09:51:34.968Z,9.18
2022-08-23T09:54:11.910Z,10.43
2022-08-23T09:56:48.367Z,10.00
2022-08-23T09:59:27.449Z,9.07
2022-08-23T10:02:06.291Z,11.88
2022-08-23T10:04:47.176Z,18.63
2022-08-23T10:07:30.303Z,8.15
2022-08-23T10:10:17.810Z,6.50
2022-08-23T10:12:49.098Z,9.00
2022-08-23T10:15:21.471Z,10.52
2022-08-23T10:18:43.314Z,8.70
2022-08-23T10:22:00.288Z,6.43
2022-08-23T10:25:21.530Z,6.50
2022-08-23T10:28:42.550Z,9.75
2022-08-23T10:31:38.468Z,5.38
2022-08-23T10:34:41.539Z,6.32
2022-08-23T10:37:40.221Z,7.35
2022-08-23T10:40:23.360Z,9.35
2022-08-23T10:43:02.324Z,7.30
2022-08-23T10:45:35.380Z,7.57
2022-08-23T10:48:32.672Z,6.70
2022-08-23T10:51:11.982Z,6.82
2022-08-23T10:53:56.451Z,10.20
2022-08-23T10:56:28.981Z,10.35
2022-08-23T10:59:24.391Z,11.73
2022-08-23T11:02:02.180Z,10.95
2022-08-23T11:04:59.742Z,6.60
2022-08-23T11:07:41.481Z,6.60
2022-08-23T11:10:26.580Z,12.10
2022-08-23T11:13:06.669Z,9.27
2022-08-23T11:15:49.122Z,6.75
2022-08-23T11:18:44.551Z,9.93
2022-08-23T11:21:34.944Z,6.47
2022-08-23T11:24:06.445Z,7.78
2022-08-23T11:26:41.719Z,7.70
2022-08-23T11:29:28.496Z,7.22
2022-08-23T11:32:38.253Z,7.90
2022-08-23T11:35:43.215Z,3.90
2022-08-23T11:38:17.306Z,6.95
2022-08-23T11:40:57.879Z,5.22
2022-08-23T11:43:42.993Z,7.60
2022-08-23T11:46:27.386Z,7.53
2022-08-23T11:52:08.627Z,3.88
2022-08-23T11:54:42.210Z,8.43
2022-08-23T11:57:21.156Z,7.30
2022-08-23T12:00:02.595Z,3.10
2022-08-23T12:02:42.357Z,5.63
2022-08-23T12:05:18.420Z,8.93
2022-08-23T12:07:55.956Z,2.63
2022-08-23T12:10:44.048Z,6.93
2022-08-23T12:13:23.269Z,10.43
2022-08-23T12:16:17.907Z,11.00
2022-08-23T12:18:58.023Z,4.60
2022-08-23T12:21:32.942Z,5.40
2022-08-23T12:26:47.594Z,11.73
2022-08-23T12:29:17.760Z,7.22
2022-08-23T12:34:40.363Z,3.08
2022-08-23T12:37:13.045Z,4.47
2022-08-23T12:39:50.848Z,4.10
2022-08-23T12:42:29.631Z,4.70
2022-08-23T12:45:06.563Z,11.63
2022-08-23T12:47:46.079Z,2.92
2022-08-23T12:50:15.018Z,5.43
2022-08-23T12:52:42.839Z,4.65
2022-08-23T12:55:19.675Z,4.68
2022-08-23T12:58:02.183Z,4.78
2022-08-23T13:00:39.089Z,3.90
2022-08-23T13:03:38.703Z,3.38
2022-08-23T13:06:11.949Z,5.57
2022-08-23T13:11:10.478Z,5.40
2022-08-23T13:13:40.872Z,5.07
2022-08-23T13:16:47.275Z,8.45
2022-08-23T13:19:34.549Z,4.97
2022-08-23T13:22:20.566Z,5.55
2022-08-23T13:25:28.163Z,5.80
2022-08-23T13:28:26.214Z,15.13
2022-08-23T13:31:08.999Z,2.88
2022-08-23T13:33:40.995Z,5.40
2022-08-23T13:36:16.710Z,4.55
2022-08-23T13:38:47.468Z,5.57
2022-08-23T13:41:38.645Z,4.72
2022-08-23T13:44:19.074Z,7.65
2022-08-23T13:46:48.233Z,4.03
2022-08-23T13:49:24.862Z,7.25
2022-08-23T13:54:50.943Z,4.90
2022-08-23T13:59:54.486Z,1.85
2022-08-23T14:02:24.195Z,6.40
2022-08-23T14:04:54.654Z,3.67
2022-08-23T14:07:21.888Z,2.65
2022-08-23T14:09:55.313Z,5.45
2022-08-23T14:12:28.163Z,4.65
2022-08-23T14:15:13.691Z,4.90
2022-08-23T14:17:56.652Z,2.72
2022-08-23T14:20:43.768Z,3.70
2022-08-23T14:23:14.925Z,3.72
2022-08-23T14:25:51.636Z,4.38
2022-08-23T14:28:21.719Z,3.45
2022-08-23T14:30:59.320Z,8.05
2022-08-23T14:33:49.745Z,4.93
2022-08-23T14:36:23.588Z,4.65
2022-08-23T14:39:03.233Z,4.85
2022-08-23T14:41:34.445Z,6.70
2022-08-23T14:44:15.838Z,3.42
2022-08-23T14:46:52.088Z,6.45
2022-08-23T14:49:41.007Z,7.55
2022-08-23T14:52:19.034Z,2.17
2022-08-23T14:54:55.177Z,10.30
2022-08-23T14:57:26.097Z,6.50
2022-08-23T15:00:25.150Z,2.15
2022-08-23T15:03:17.772Z,6.13
2022-08-23T15:06:18.115Z,3.70
2022-08-23T15:15:10.854Z,11.30
2022-08-23T15:18:05.657Z,5.43
2022-08-23T15:21:03.171Z,4.97
2022-08-23T15:23:42.829Z,5.40
2022-08-23T15:26:33.021Z,6.70
2022-08-23T15:32:32.523Z,6.50
2022-08-23T15:35:12.829Z,3.08
2022-08-23T15:38:13.781Z,7.63
2022-08-23T15:40:55.257Z,1.42
2022-08-23T15:43:35.302Z,4.82
2022-08-23T15:46:21.045Z,6.28
2022-08-23T15:51:54.777Z,1.45
2022-08-23T15:54:25.402Z,1.45
2022-08-23T15:57:14.046Z,1.42
2022-08-23T15:59:51.086Z,1.77
2022-08-23T16:03:13.983Z,2.28
2022-08-23T16:05:46.821Z,1.40
2022-08-23T16:08:35.554Z,2.65
2022-08-23T16:11:17.405Z,1.88
2022-08-23T16:14:03.728Z,2.15
2022-08-23T16:16:41.624Z,7.28
2022-08-23T16:19:16.858Z,4.05
2022-08-23T16:21:48.738Z,5.18
2022-08-23T16:24:22.483Z,4.10
2022-08-23T16:27:02.320Z,3.13
2022-08-23T16:29:39.096Z,1.73
2022-08-23T16:32:13.109Z,3.13
2022-08-23T16:34:45.181Z,0.80
2022-08-23T16:37:18.238Z,2.25
2022-08-23T16:39:54.786Z,2.63
2022-08-23T16:42:29.707Z,2.70
2022-08-23T16:45:02.144Z,1.83
2022-08-23T16:47:38.477Z,3.20
2022-08-23T16:50:28.577Z,1.70
2022-08-23T16:53:10.926Z,1.10
2022-08-23T16:55:49.749Z,1.65
2022-08-23T16:58:23.250Z,5.70
2022-08-23T17:00:56.356Z,1.65
2022-08-23T17:03:28.712Z,2.83
2022-08-23T17:06:04.183Z,2.25
2022-08-23T17:08:47.818Z,1.73
2022-08-23T17:11:20.147Z,1.30
2022-08-23T17:14:09.956Z,5.78
2022-08-23T17:16:45.739Z,0.73
2022-08-23T17:19:16.424Z,2.67
2022-08-23T17:21:58.038Z,1.65
2022-08-23T17:24:33.713Z,1.75
2022-08-23T17:27:05.522Z,0.93
2022-08-23T17:29:37.455Z,2.95
2022-08-23T17:32:10.961Z,1.20
2022-08-23T17:34:42.840Z,3.03
2022-08-23T17:37:35.254Z,1.45
2022-08-23T17:40:09.975Z,1.30
2022-08-23T17:42:49.363Z,3.42
2022-08-23T17:45:20.905Z,1.05
2022-08-23T17:47:59.096Z,0.75
2022-08-23T17:50:37.829Z,1.70
2022-08-23T17:53:18.853Z,1.20
2022-08-23T17:56:10.391Z,2.30
2022-08-23T17:58:50.240Z,1.80
2022-08-23T18:01:20.728Z,1.83
2022-08-23T18:03:54.304Z,2.22
2022-08-23T18:06:39.756Z,4.97
2022-08-23T18:09:10.447Z,2.90
2022-08-23T18:11:39.515Z,3.80
2022-08-23T18:14:14.207Z,1.20
2022-08-23T18:16:44.108Z,1.80
2022-08-23T18:19:24.889Z,1.00
2022-08-23T18:21:58.592Z,2.38
2022-08-23T18:24:32.447Z,2.00
2022-08-23T18:27:27.433Z,2.25
2022-08-23T18:30:00.557Z,1.73
2022-08-23T18:32:29.046Z,4.20
2022-08-23T18:35:06.990Z,6.13
2022-08-23T18:37:38.260Z,4.50
2022-08-23T18:40:29.821Z,2.28
2022-08-23T18:43:10.715Z,2.35
2022-08-23T18:45:45.045Z,3.05
2022-08-23T18:48:19.693Z,2.88
2022-08-23T18:50:53.502Z,6.70
2022-08-23T18:53:33.916Z,1.90
2022-08-23T18:56:14.656Z,6.85
2022-08-23T18:58:51.283Z,5.80
2022-08-23T19:01:36.527Z,3.00
2022-08-23T19:04:19.251Z,2.88
2022-08-23T19:06:54.856Z,5.37
2022-08-23T19:09:25.685Z,4.22
2022-08-23T19:12:02.593Z,5.50
2022-08-23T19:14:35.995Z,5.78
2022-08-23T19:17:18.727Z,5.57
2022-08-23T19:19:56.098Z,6.07
2022-08-23T19:22:38.016Z,5.43
2022-08-23T19:25:11.696Z,4.55
2022-08-23T19:27:52.692Z,6.57
2022-08-23T19:30:22.999Z,4.75
2022-08-23T19:32:55.367Z,7.70
2022-08-23T19:35:25.818Z,3.95
2022-08-23T19:38:00.368Z,7.82
2022-08-23T19:40:32.544Z,2.13
2022-08-23T19:43:09.012Z,3.60
2022-08-23T19:45:41.175Z,2.53
2022-08-23T19:48:21.122Z,7.25
2022-08-23T19:50:58.766Z,6.28
2022-08-23T19:53:27.168Z,5.72
2022-08-23T19:56:02.097Z,9.73
2022-08-23T19:58:36.837Z,2.88
2022-08-23T20:01:23.328Z,2.95
2022-08-23T20:04:02.994Z,5.85
2022-08-23T20:06:39.067Z,7.05
2022-08-23T20:09:27.099Z,6.07
2022-08-23T20:12:07.096Z,8.10
2022-08-23T20:14:53.543Z,5.45
2022-08-23T20:17:27.543Z,8.02
2022-08-23T20:20:00.656Z,4.22
2022-08-23T20:23:01.516Z,3.33
2022-08-23T20:25:32.422Z,2.70
2022-08-23T20:28:07.846Z,2.95
2022-08-23T20:30:43.412Z,3.45
2022-08-23T20:33:17.146Z,2.08
2022-08-23T20:35:57.053Z,6.38
2022-08-23T20:38:34.228Z,3.22
2022-08-23T20:41:09.216Z,2.30
2022-08-23T20:43:49.759Z,4.47
2022-08-23T20:46:20.821Z,5.60
2022-08-23T20:48:52.213Z,8.20
2022-08-23T20:51:28.134Z,5.50
2022-08-23T20:54:05.684Z,3.95
2022-08-23T20:56:44.426Z,3.88
2022-08-23T20:59:17.475Z,2.13
2022-08-23T21:01:51.656Z,4.47
2022-08-23T21:04:34.825Z,7.40
2022-08-23T21:07:09.885Z,7.45
2022-08-23T21:09:47.467Z,2.05
2022-08-23T21:12:24.461Z,5.30
2022-08-23T21:15:00.658Z,4.55
2022-08-23T21:17:44.064Z,2.88
2022-08-23T21:20:16.593Z,7.25
2022-08-23T21:22:46.171Z,4.97
2022-08-23T21:25:23.000Z,3.03
2022-08-23T21:28:05.711Z,2.50
2022-08-23T21:30:43.731Z,6.22
2022-08-23T21:33:23.751Z,2.70
2022-08-23T21:36:00.067Z,10.18
2022-08-23T21:38:33.007Z,7.90
2022-08-23T21:41:09.299Z,4.82
2022-08-23T21:43:41.005Z,5.57
2022-08-23T21:46:11.088Z,4.40
2022-08-23T21:48:39.105Z,4.72
2022-08-23T21:51:09.478Z,7.95
2022-08-23T21:53:42.030Z,3.70
2022-08-23T21:56:24.055Z,5.80
2022-08-23T21:59:04.808Z,3.42
2022-08-23T22:01:37.179Z,8.60
2022-08-23T22:04:13.251Z,5.03
2022-08-23T22:06:49.331Z,6.32
2022-08-23T22:09:27.946Z,2.67
2022-08-23T22:12:00.809Z,8.23
2022-08-23T22:14:37.782Z,4.93
2022-08-23T22:17:08.836Z,2.67
2022-08-23T22:19:49.381Z,8.68
2022-08-23T22:22:20.586Z,7.38
2022-08-23T22:24:59.394Z,5.45
2022-08-23T22:27:32.309Z,4.70
2022-08-23T22:30:09.130Z,3.92
2022-08-23T22:32:42.135Z,4.95
2022-08-23T22:35:20.490Z,4.93
2022-08-23T22:38:12.657Z,3.10
2022-08-23T22:41:01.434Z,2.77
2022-08-23T22:43:42.098Z,3.35
2022-08-23T22:46:21.467Z,2.35
2022-08-23T22:48:59.517Z,4.68
2022-08-23T22:51:38.867Z,13.95
2022-08-23T22:54:15.628Z,5.00
2022-08-23T22:56:54.283Z,4.65
2022-08-23T22:59:45.427Z,4.00
2022-08-23T23:02:16.845Z,2.97
2022-08-23T23:04:46.344Z,4.00
2022-08-23T23:07:47.115Z,1.75
2022-08-23T23:10:21.402Z,3.78
2022-08-23T23:12:56.324Z,4.40
2022-08-23T23:15:26.910Z,10.02
2022-08-23T23:17:54.507Z,1.85
2022-08-23T23:20:40.642Z,7.28
2022-08-23T23:23:23.518Z,3.75
2022-08-23T23:25:54.083Z,6.67
2022-08-23T23:28:28.234Z,4.72
2022-08-23T23:30:59.638Z,2.10
2022-08-23T23:33:36.366Z,4.72
2022-08-23T23:36:04.095Z,1.42
2022-08-23T23:38:45.319Z,3.20
2022-08-23T23:41:13.897Z,2.33
2022-08-23T23:43:44.670Z,4.13
2022-08-23T23:46:15.080Z,4.82
2022-08-23T23:48:51.532Z,3.70
2022-08-23T23:51:23.219Z,3.22
2022-08-23T23:54:01.042Z,2.85
2022-08-23T23:56:32.839Z,3.70
